createdAt,value
2023-03-23T16:00:24.749Z,100257.63
2023-03-23T16:03:18.805Z,100255.19
2023-03-23T16:06:06.939Z,100253.13
2023-03-23T16:08:55.976Z,100240.56
2023-03-23T16:11:43.992Z,100258.09
2023-03-23T16:14:31.595Z,100261.97
2023-03-23T16:17:21.973Z,100250.59
2023-03-23T16:20:15.741Z,100250.50
2023-03-23T16:23:03.528Z,100261.06
2023-03-23T16:25:51.270Z,100236.44
2023-03-23T16:28:39.498Z,100265.59
2023-03-23T16:31:27.227Z,100261.38
2023-03-23T16:34:15.714Z,100260.78
2023-03-23T16:37:03.421Z,100269.00
2023-03-23T16:39:51.163Z,100250.94
2023-03-23T16:42:38.740Z,100256.38
2023-03-23T16:45:27.541Z,100236.50
2023-03-23T16:48:16.810Z,100226.25
2023-03-23T16:51:04.827Z,100263.44
2023-03-23T16:53:52.458Z,100267.19
2023-03-23T16:56:40.468Z,100265.00
2023-03-23T16:59:29.163Z,100258.44
2023-03-23T17:02:17.137Z,100250.69
2023-03-23T17:05:04.961Z,100256.81
2023-03-23T17:07:53.181Z,100246.94
2023-03-23T17:10:41.955Z,100247.00
2023-03-23T17:13:32.091Z,100240.38
2023-03-23T17:16:19.739Z,100254.09
2023-03-23T17:19:07.847Z,100275.06
2023-03-23T17:21:55.587Z,100274.44
2023-03-23T17:24:44.148Z,100239.28
2023-03-23T17:27:32.315Z,100283.06
2023-03-23T17:30:20.215Z,100281.47
2023-03-23T17:33:12.631Z,100278.16
2023-03-23T17:36:03.161Z,100255.63
2023-03-23T17:39:02.390Z,100287.13
2023-03-23T17:41:50.160Z,100285.22
2023-03-23T17:44:38.217Z,100310.38
2023-03-23T17:47:26.327Z,100299.50
2023-03-23T17:50:14.387Z,100249.78
2023-03-23T17:53:02.338Z,100301.72
2023-03-23T17:55:53.564Z,100298.94
2023-03-23T17:58:41.285Z,100271.75
2023-03-23T18:01:29.009Z,100309.66
2023-03-23T18:04:17.461Z,100306.41
2023-03-23T18:07:07.542Z,100322.88
2023-03-23T18:10:01.613Z,100321.56
2023-03-23T18:12:51.667Z,100320.13
2023-03-23T18:15:45.671Z,100332.31
2023-03-23T18:18:37.461Z,100313.06
2023-03-23T18:21:26.288Z,100327.22
2023-03-23T18:24:15.546Z,100342.06
2023-03-23T18:27:03.900Z,100318.19
2023-03-23T18:29:53.981Z,100321.31
2023-03-23T18:32:42.538Z,100350.28
2023-03-23T18:35:39.630Z,100358.91
2023-03-23T18:38:28.979Z,100358.69
2023-03-23T18:41:18.411Z,100350.16
2023-03-23T18:44:06.541Z,100359.00
2023-03-23T18:46:54.381Z,100325.84
2023-03-23T18:49:42.043Z,100354.34
2023-03-23T18:52:33.121Z,100366.53
2023-03-23T18:55:22.098Z,100353.41
2023-03-23T18:58:10.639Z,100356.41
2023-03-23T19:00:58.545Z,100350.19
2023-03-23T19:03:46.893Z,100360.44
2023-03-23T19:06:37.731Z,100357.31
2023-03-23T19:09:25.761Z,100359.47
2023-03-23T19:12:16.102Z,100359.44
2023-03-23T19:15:07.272Z,100369.56
2023-03-23T19:17:56.688Z,100377.94
2023-03-23T19:21:12.710Z,100372.84
2023-03-23T19:23:55.289Z,100381.19
2023-03-23T19:26:45.203Z,100375.13
2023-03-23T19:29:33.224Z,100354.06
2023-03-23T19:32:21.208Z,100382.66
2023-03-23T19:35:10.179Z,100369.03
2023-03-23T19:37:58.025Z,100360.53
2023-03-23T19:40:58.485Z,100371.94
2023-03-23T19:43:56.458Z,100376.06
2023-03-23T19:46:49.271Z,100344.22
2023-03-23T19:49:37.300Z,100385.28
2023-03-23T19:52:25.097Z,100380.53
2023-03-23T19:55:12.985Z,100385.41
2023-03-23T19:58:00.694Z,100379.38
2023-03-23T20:00:48.894Z,100392.81
2023-03-23T20:03:37.123Z,100343.47
2023-03-23T20:06:24.814Z,100386.56
2023-03-23T20:09:12.425Z,100395.00
2023-03-23T20:12:00.193Z,100371.16
2023-03-23T20:14:47.879Z,100385.19
2023-03-23T20:17:35.660Z,100397.41
2023-03-23T20:20:23.808Z,100401.13
2023-03-23T20:23:11.451Z,100392.28
2023-03-23T20:26:06.886Z,100403.13
2023-03-23T20:28:55.188Z,100413.97
2023-03-23T20:31:43.479Z,100383.00
2023-03-23T20:34:31.747Z,100407.56
2023-03-23T20:37:20.799Z,100409.69
2023-03-23T20:40:15.160Z,100406.19
2023-03-23T20:43:03.999Z,100407.31
2023-03-23T20:45:52.651Z,100369.25
2023-03-23T20:48:41.457Z,100398.47
2023-03-23T20:51:29.180Z,100399.28
2023-03-23T20:54:19.165Z,100369.44
2023-03-23T20:57:08.432Z,100403.50
2023-03-23T20:59:56.579Z,100385.78
2023-03-23T21:02:44.651Z,100396.59
2023-03-23T21:05:32.343Z,100386.44
2023-03-23T21:08:20.194Z,100383.84
2023-03-23T21:11:10.085Z,100370.97
2023-03-23T21:13:57.861Z,100387.22
2023-03-23T21:16:45.730Z,100384.78
2023-03-23T21:19:34.456Z,100374.53
2023-03-23T21:22:22.640Z,100389.53
2023-03-23T21:25:10.374Z,100378.94
2023-03-23T21:27:58.091Z,100393.94
2023-03-23T21:30:48.378Z,100389.56
2023-03-23T21:33:36.213Z,100374.06
2023-03-23T21:36:24.979Z,100387.41
2023-03-23T21:39:12.862Z,100375.16
2023-03-23T21:42:02.060Z,100382.59
2023-03-23T21:44:49.775Z,100391.97
2023-03-23T21:47:38.344Z,100381.00
2023-03-23T21:50:26.047Z,100365.84
2023-03-23T21:53:18.524Z,100390.84
2023-03-23T21:56:07.647Z,100353.13
2023-03-23T21:58:56.815Z,100381.81
2023-03-23T22:01:44.607Z,100382.63
2023-03-23T22:04:32.350Z,100374.41
2023-03-23T22:07:23.358Z,100393.78
2023-03-23T22:10:11.067Z,100390.84
2023-03-23T22:12:58.831Z,100393.78
2023-03-23T22:15:52.102Z,100398.97
2023-03-23T22:18:43.556Z,100393.78
2023-03-23T22:21:31.464Z,100360.56
2023-03-23T22:24:19.141Z,100391.84
2023-03-23T22:27:07.341Z,100378.47
2023-03-23T22:29:55.099Z,100351.53
2023-03-23T22:32:43.128Z,100379.31
2023-03-23T22:35:30.965Z,100377.50
2023-03-23T22:38:18.786Z,100387.81
2023-03-23T22:41:08.005Z,100384.59
2023-03-23T22:43:55.925Z,100369.28
2023-03-23T22:46:43.635Z,100372.84
2023-03-23T22:49:32.958Z,100359.75
2023-03-23T22:52:20.800Z,100360.41
2023-03-23T22:55:09.499Z,100358.94
2023-03-23T22:57:57.198Z,100353.94
2023-03-23T23:00:48.319Z,100335.09
2023-03-23T23:03:37.111Z,100345.13
2023-03-23T23:06:25.869Z,100317.69
2023-03-23T23:09:13.689Z,100324.91
2023-03-23T23:12:01.384Z,100353.16
2023-03-23T23:14:49.182Z,100344.78
2023-03-23T23:17:39.148Z,100348.81
2023-03-23T23:20:27.051Z,100350.09
2023-03-23T23:23:14.709Z,100353.34
2023-03-23T23:26:02.985Z,100323.03
2023-03-23T23:28:51.147Z,100352.06
2023-03-23T23:31:38.958Z,100334.31
2023-03-23T23:34:26.736Z,100354.00
2023-03-23T23:37:14.482Z,100350.63
2023-03-23T23:40:02.968Z,100358.69
2023-03-23T23:42:52.379Z,100340.63
2023-03-23T23:45:40.146Z,100364.50
2023-03-23T23:48:28.558Z,100346.75
2023-03-23T23:51:17.724Z,100356.28
2023-03-23T23:54:05.486Z,100353.50
2023-03-23T23:56:53.195Z,100366.13
2023-03-23T23:59:41.513Z,100337.22
